createdAt,value
2023-05-09T09:34:12.625Z,15720.00
2023-05-09T09:35:18.227Z,16512.00
2023-05-09T09:36:18.214Z,17248.00
2023-05-09T09:37:18.195Z,17984.00
2023-05-09T09:38:18.174Z,18528.00
2023-05-09T09:39:18.175Z,19168.00
2023-05-09T09:40:18.307Z,19488.00
2023-05-09T09:41:18.146Z,19712.00
2023-05-09T09:42:18.134Z,19904.00
2023-05-09T09:43:18.122Z,19968.00
2023-05-09T09:44:18.128Z,19840.00
2023-05-09T09:45:18.100Z,19808.00
2023-05-09T09:46:18.127Z,19840.00
2023-05-09T09:47:18.068Z,19744.00
2023-05-09T09:48:18.066Z,19744.00
2023-05-09T09:49:18.128Z,19840.00
2023-05-09T09:50:18.221Z,20064.00
2023-05-09T09:51:18.003Z,20352.00
2023-05-09T09:52:18.034Z,20544.00
2023-05-09T09:53:18.008Z,20704.00
2023-05-09T09:54:18.002Z,20576.00
2023-05-09T09:55:17.982Z,19904.00
2023-05-09T09:56:17.989Z,19456.00
2023-05-09T09:57:17.969Z,19360.00
2023-05-09T09:58:32.247Z,18208.00
2023-05-09T09:59:32.226Z,17312.00
2023-05-09T10:00:32.229Z,17344.00
2023-05-09T10:01:32.295Z,17856.00
2023-05-09T10:02:32.254Z,19072.00
2023-05-09T10:03:32.203Z,20128.00
2023-05-09T10:04:32.249Z,20288.00
2023-05-09T10:05:32.164Z,20224.00
2023-05-09T10:06:32.164Z,19872.00
2023-05-09T10:07:32.148Z,19616.00
2023-05-09T10:08:32.124Z,19456.00
2023-05-09T10:09:32.131Z,19680.00
2023-05-09T10:10:32.107Z,19936.00
2023-05-09T10:11:32.128Z,20192.00
2023-05-09T10:12:32.073Z,20416.00
2023-05-09T10:13:32.132Z,20608.00
2023-05-09T10:14:34.845Z,20768.00
2023-05-09T10:15:41.321Z,20640.00
2023-05-09T10:16:43.701Z,20544.00
2023-05-09T10:17:32.283Z,20640.00
2023-05-09T10:18:32.271Z,20864.00
2023-05-09T10:19:32.034Z,21120.00
2023-05-09T10:20:32.079Z,21504.00
2023-05-09T10:21:31.985Z,21856.00
2023-05-09T10:22:31.969Z,22048.00
2023-05-09T10:23:31.996Z,21920.00
2023-05-09T10:24:31.979Z,21632.00
2023-05-09T10:25:31.972Z,21472.00
2023-05-09T10:26:31.940Z,21472.00
2023-05-09T10:27:31.923Z,21632.00
2023-05-09T10:28:31.910Z,21792.00
2023-05-09T10:29:31.923Z,21664.00
2023-05-09T10:30:33.963Z,21408.00
2023-05-09T10:31:31.945Z,21408.00
2023-05-09T10:32:31.874Z,21440.00
2023-05-09T10:33:31.871Z,21312.00
2023-05-09T10:34:31.881Z,21472.00
2023-05-09T10:35:31.870Z,21728.00
2023-05-09T10:36:31.905Z,22048.00
2023-05-09T10:37:33.569Z,22400.00
2023-05-09T10:38:31.817Z,22720.00
2023-05-09T10:39:31.794Z,22912.00
2023-05-09T10:40:31.791Z,23008.00
2023-05-09T10:41:31.774Z,22912.00
2023-05-09T10:42:31.767Z,22880.00
2023-05-09T10:43:32.228Z,22848.00
2023-05-09T10:44:31.756Z,22880.00
2023-05-09T10:45:31.794Z,23072.00
2023-05-09T10:46:31.824Z,23456.00
2023-05-09T10:47:31.756Z,23744.00
2023-05-09T10:48:31.706Z,23936.00
2023-05-09T10:49:31.711Z,24096.00
2023-05-09T10:50:31.672Z,24224.00
2023-05-09T10:51:31.706Z,24224.00
2023-05-09T10:52:31.743Z,24256.00
2023-05-09T10:53:31.674Z,24256.00
2023-05-09T10:54:31.634Z,24288.00
2023-05-09T10:55:31.652Z,24160.00
2023-05-09T10:56:31.626Z,24064.00
2023-05-09T10:57:31.616Z,24000.00
2023-05-09T10:58:31.598Z,24192.00
2023-05-09T10:59:31.595Z,24448.00
2023-05-09T11:00:31.595Z,24672.00
2023-05-09T11:01:31.659Z,24832.00
2023-05-09T11:02:31.561Z,24832.00
2023-05-09T11:03:31.613Z,24704.00
2023-05-09T11:04:31.549Z,24320.00
2023-05-09T11:05:31.558Z,23744.00
2023-05-09T11:06:31.540Z,23296.00
2023-05-09T11:07:31.541Z,23488.00
2023-05-09T11:08:31.602Z,23456.00
2023-05-09T11:09:31.543Z,23648.00
2023-05-09T11:10:31.483Z,23968.00
2023-05-09T11:11:31.484Z,24352.00
2023-05-09T11:12:31.499Z,24512.00
2023-05-09T11:13:31.531Z,24480.00
2023-05-09T11:14:31.466Z,24128.00
2023-05-09T11:15:31.463Z,24416.00
2023-05-09T11:16:31.484Z,24448.00
2023-05-09T11:17:31.493Z,24672.00
2023-05-09T11:18:31.437Z,24640.00
2023-05-09T11:19:31.436Z,24544.00
2023-05-09T11:20:31.422Z,24544.00
2023-05-09T11:21:31.392Z,24640.00
2023-05-09T11:22:31.407Z,24672.00
2023-05-09T11:23:31.386Z,24448.00
2023-05-09T11:24:31.463Z,24064.00
2023-05-09T11:25:31.373Z,24032.00
2023-05-09T11:26:31.344Z,24224.00
2023-05-09T11:27:31.359Z,24224.00
2023-05-09T11:28:31.345Z,24096.00
2023-05-09T11:29:31.325Z,23904.00
2023-05-09T11:30:31.308Z,23712.00
2023-05-09T11:31:31.319Z,23680.00
2023-05-09T11:32:31.348Z,23840.00
2023-05-09T11:33:31.317Z,23680.00
2023-05-09T11:34:31.301Z,23040.00
2023-05-09T11:35:31.302Z,22816.00
2023-05-09T11:36:31.273Z,23136.00
2023-05-09T11:37:31.314Z,23296.00
2023-05-09T11:38:31.263Z,23584.00
2023-05-09T11:39:31.239Z,23616.00
2023-05-09T11:40:31.312Z,23584.00
2023-05-09T11:41:31.223Z,23520.00
2023-05-09T11:42:31.238Z,24192.00
2023-05-09T11:43:31.229Z,23904.00
2023-05-09T11:44:31.200Z,23328.00
2023-05-09T11:45:31.190Z,21888.00
2023-05-09T11:46:31.262Z,21056.00
2023-05-09T11:47:31.220Z,20992.00
2023-05-09T11:48:31.175Z,20224.00
2023-05-09T11:49:31.165Z,19616.00
2023-05-09T11:55:58.514Z,17600.00
2023-05-09T11:56:58.474Z,17504.00
2023-05-09T11:57:58.428Z,17728.00
2023-05-09T11:58:58.390Z,19488.00
2023-05-09T11:59:58.394Z,20160.00
2023-05-09T12:00:58.417Z,20544.00
2023-05-09T12:01:58.383Z,21472.00
2023-05-09T12:02:58.462Z,22336.00
2023-05-09T12:03:58.453Z,21888.00
2023-05-09T12:04:58.314Z,21216.00
2023-05-09T12:05:58.322Z,20736.00
2023-05-09T12:06:58.307Z,20064.00
2023-05-09T12:07:58.293Z,19872.00
2023-05-09T12:08:58.291Z,20128.00
2023-05-09T12:09:58.305Z,20960.00
2023-05-09T12:10:58.270Z,21760.00
2023-05-09T12:11:58.351Z,22016.00
2023-05-09T12:12:58.298Z,21952.00
2023-05-09T12:13:58.251Z,21696.00
2023-05-09T12:14:58.249Z,21408.00
2023-05-09T12:15:58.223Z,20896.00
2023-05-09T12:20:08.187Z,18464.00
2023-05-09T12:21:08.167Z,19488.00
2023-05-09T12:22:08.184Z,21216.00
2023-05-09T12:23:08.170Z,22048.00
2023-05-09T12:24:08.125Z,22336.00
2023-05-09T12:25:08.140Z,22752.00
2023-05-09T12:26:08.114Z,23104.00
2023-05-09T12:27:08.196Z,22656.00
2023-05-09T12:28:08.118Z,21824.00
2023-05-09T12:29:08.143Z,21312.00
2023-05-09T12:30:08.093Z,21312.00
2023-05-09T12:31:08.093Z,21856.00
2023-05-09T12:32:08.065Z,22720.00
2023-05-09T12:33:08.126Z,24000.00
2023-05-09T12:34:08.034Z,24256.00
2023-05-09T12:35:08.068Z,23840.00
2023-05-09T12:36:08.026Z,22656.00
2023-05-09T12:37:08.012Z,21504.00
2023-05-09T12:38:08.014Z,21248.00
2023-05-09T12:39:07.996Z,21536.00
2023-05-09T12:40:08.017Z,21536.00
2023-05-09T12:41:12.998Z,21024.00
2023-05-09T12:42:07.974Z,19552.00
2023-05-09T12:43:08.056Z,18880.00
2023-05-09T12:44:07.939Z,18944.00
2023-05-09T12:45:07.966Z,18944.00
2023-05-09T12:47:47.287Z,20544.00
2023-05-09T12:48:47.241Z,20960.00
2023-05-09T12:49:47.239Z,20832.00
2023-05-09T12:50:47.234Z,20352.00
2023-05-09T12:51:47.213Z,20256.00
2023-05-09T12:52:58.993Z,20640.00
2023-05-09T12:53:47.193Z,20544.00
2023-05-09T12:54:47.181Z,20192.00
2023-05-09T12:55:47.159Z,20064.00
2023-05-09T12:56:47.168Z,20448.00
2023-05-09T12:57:47.160Z,21152.00
2023-05-09T12:58:47.216Z,21376.00
2023-05-09T12:59:47.155Z,22368.00
2023-05-09T13:00:47.134Z,22816.00
2023-05-09T13:01:47.111Z,22752.00
2023-05-09T13:02:47.183Z,22944.00
2023-05-09T13:03:47.118Z,22112.00
2023-05-09T13:04:47.063Z,20512.00
2023-05-09T13:05:47.084Z,19936.00
2023-05-09T13:06:47.103Z,19584.00
2023-05-09T13:07:47.124Z,20448.00
2023-05-09T13:08:47.044Z,20448.00
2023-05-09T13:09:47.072Z,19936.00
2023-05-09T13:10:47.004Z,19904.00
2023-05-09T13:11:47.050Z,20224.00
2023-05-09T13:12:47.032Z,20064.00
2023-05-09T13:13:47.007Z,19424.00
2023-05-09T13:14:47.120Z,18976.00
2023-05-09T13:15:46.992Z,18304.00
2023-05-09T13:48:37.075Z,19040.00
2023-05-09T13:49:37.002Z,18880.00
2023-05-09T13:50:36.960Z,18784.00
2023-05-09T13:51:36.974Z,18592.00
